createdAt,value
2017-11-30T00:01:52.659Z,78.8
2017-11-30T00:18:26.639Z,78.8
2017-11-30T00:35:00.830Z,78.0
2017-11-30T00:51:34.666Z,78.0
2017-11-30T01:08:08.715Z,78.0
2017-11-30T01:24:42.730Z,78.0
2017-11-30T01:41:16.695Z,78.0
2017-11-30T01:57:50.800Z,78.0
2017-11-30T02:14:24.920Z,78.0
2017-11-30T02:30:59.056Z,78.0
2017-11-30T02:47:33.097Z,78.0
2017-11-30T03:04:07.291Z,78.0
2017-11-30T03:20:41.344Z,78.0
2017-11-30T03:37:15.371Z,78.0
2017-11-30T03:53:49.334Z,78.0
2017-11-30T04:10:23.261Z,78.4
2017-11-30T04:26:57.067Z,78.4
2017-11-30T04:43:30.838Z,78.4
2017-11-30T05:00:04.604Z,78.8
2017-11-30T05:16:38.457Z,78.4
2017-11-30T05:33:12.185Z,78.4
2017-11-30T05:49:46.015Z,78.8
2017-11-30T06:06:19.767Z,78.8
2017-11-30T06:22:53.605Z,78.8
2017-11-30T06:39:27.506Z,79.2
2017-11-30T06:56:01.405Z,78.8
2017-11-30T07:12:35.394Z,79.6
2017-11-30T07:29:09.200Z,80.0
2017-11-30T07:45:43.288Z,80.0
2017-11-30T08:02:17.343Z,80.0
2017-11-30T08:18:51.390Z,80.0
2017-11-30T08:35:25.521Z,80.0
2017-11-30T08:51:59.788Z,80.4
2017-11-30T09:41:43.750Z,80.4
2017-11-30T09:58:18.528Z,80.8
2017-11-30T10:14:53.419Z,80.4
2017-11-30T10:31:28.227Z,80.4
2017-11-30T10:48:03.741Z,80.4
2017-11-30T11:04:38.137Z,80.4
2017-11-30T11:21:13.814Z,80.8
2017-11-30T11:37:48.408Z,80.8
2017-11-30T11:54:23.542Z,80.4
2017-11-30T12:10:58.855Z,80.4
2017-11-30T12:27:34.448Z,80.0
2017-11-30T12:44:10.410Z,80.0
2017-11-30T13:00:46.446Z,80.0
2017-11-30T13:17:22.514Z,79.2
2017-11-30T13:33:58.623Z,79.2
2017-11-30T13:50:34.639Z,78.8
2017-11-30T14:07:10.665Z,78.8
2017-11-30T14:40:24.565Z,79.2
2017-11-30T14:56:58.534Z,78.8
2017-11-30T15:13:34.273Z,79.2
2017-11-30T15:30:10.195Z,79.2
2017-11-30T15:46:45.726Z,79.2
2017-11-30T16:03:21.457Z,79.2
2017-11-30T16:19:57.142Z,79.2
2017-11-30T16:36:32.798Z,78.8
2017-11-30T16:53:07.912Z,78.4
2017-11-30T17:09:42.761Z,78.4
2017-11-30T17:26:17.577Z,78.0
2017-11-30T17:42:52.105Z,78.0
2017-11-30T17:59:26.402Z,78.4
2017-11-30T18:16:00.734Z,78.8
2017-11-30T18:32:35.117Z,78.8
2017-11-30T18:49:09.841Z,78.8
2017-11-30T19:05:44.459Z,78.8
2017-11-30T19:22:18.945Z,78.8
2017-11-30T19:38:53.530Z,79.6
2017-11-30T19:55:28.177Z,79.6
2017-11-30T20:12:02.790Z,79.6
2017-11-30T20:28:37.569Z,79.6
2017-11-30T20:45:12.262Z,79.6
2017-11-30T21:01:48.031Z,79.6
2017-11-30T21:18:21.927Z,79.6
2017-11-30T21:34:56.820Z,79.6
2017-11-30T21:51:31.565Z,79.6
2017-11-30T22:08:06.411Z,79.6
2017-11-30T22:24:41.176Z,79.6
2017-11-30T22:41:15.741Z,79.2
2017-11-30T22:57:50.205Z,79.6
2017-11-30T23:14:25.026Z,79.6
2017-11-30T23:30:59.213Z,79.6
2017-11-30T23:47:33.686Z,79.6
